createdAt,value
2018-08-28T00:01:33.045Z,19.20
2018-08-28T00:04:00.063Z,19.20
2018-08-28T00:06:27.080Z,19.10
2018-08-28T00:08:54.128Z,19.10
2018-08-28T00:11:21.179Z,19.20
2018-08-28T00:13:48.163Z,19.20
2018-08-28T00:16:15.269Z,19.00
2018-08-28T00:18:42.318Z,18.90
2018-08-28T00:21:09.299Z,19.00
2018-08-28T00:23:36.271Z,19.00
2018-08-28T00:26:03.294Z,19.00
2018-08-28T00:28:30.273Z,19.00
2018-08-28T00:30:57.253Z,18.80
2018-08-28T00:33:24.583Z,18.60
2018-08-28T00:35:51.563Z,18.50
2018-08-28T00:38:18.683Z,18.50
2018-08-28T00:40:45.702Z,18.60
2018-08-28T00:43:12.698Z,18.70
2018-08-28T00:45:39.680Z,18.70
2018-08-28T00:48:07.189Z,18.70
2018-08-28T00:50:34.185Z,18.60
2018-08-28T00:53:01.186Z,18.50
2018-08-28T00:55:28.182Z,18.40
2018-08-28T00:57:55.205Z,18.30
2018-08-28T01:00:22.299Z,18.30
2018-08-28T01:02:49.377Z,18.30
2018-08-28T01:05:16.332Z,18.20
2018-08-28T01:07:43.315Z,18.20
2018-08-28T01:10:10.323Z,18.10
2018-08-28T01:12:37.308Z,18.00
2018-08-28T01:15:05.230Z,18.10
2018-08-28T01:17:32.218Z,18.10
2018-08-28T01:19:59.191Z,18.00
2018-08-28T01:22:26.204Z,18.00
2018-08-28T01:24:53.169Z,17.90
2018-08-28T01:27:20.185Z,17.70
2018-08-28T01:29:47.160Z,17.60
2018-08-28T01:32:14.188Z,17.50
2018-08-28T01:34:41.697Z,17.40
2018-08-28T01:37:08.700Z,17.50
2018-08-28T01:39:35.666Z,17.40
2018-08-28T01:42:02.651Z,17.40
2018-08-28T01:44:29.629Z,17.40
2018-08-28T01:46:56.743Z,17.40
2018-08-28T01:49:23.773Z,17.40
2018-08-28T01:51:50.743Z,17.50
2018-08-28T01:54:17.745Z,17.40
2018-08-28T01:56:44.724Z,17.40
2018-08-28T01:59:11.719Z,17.40
2018-08-28T02:01:38.750Z,17.30
2018-08-28T02:04:05.747Z,17.20
2018-08-28T02:06:32.734Z,17.20
2018-08-28T02:08:59.804Z,17.10
2018-08-28T02:11:26.811Z,17.00
2018-08-28T02:13:53.818Z,17.10
2018-08-28T02:16:20.842Z,16.90
2018-08-28T02:18:47.826Z,16.80
2018-08-28T02:21:14.850Z,17.00
2018-08-28T02:23:41.919Z,16.80
2018-08-28T02:26:08.890Z,16.60
2018-08-28T02:28:35.871Z,16.60
2018-08-28T02:31:02.888Z,16.50
2018-08-28T02:33:29.925Z,16.50
2018-08-28T02:35:57.486Z,16.40
2018-08-28T02:38:24.470Z,16.50
2018-08-28T02:40:51.435Z,16.70
2018-08-28T02:43:18.441Z,16.60
2018-08-28T02:45:45.439Z,15.80
2018-08-28T02:48:12.427Z,16.70
2018-08-28T02:50:39.389Z,16.60
2018-08-28T02:53:06.403Z,16.50
2018-08-28T02:55:33.380Z,16.40
2018-08-28T02:58:00.374Z,16.50
2018-08-28T03:00:27.386Z,16.50
2018-08-28T03:02:54.369Z,16.50
2018-08-28T03:05:21.335Z,16.30
2018-08-28T03:07:48.357Z,16.10
2018-08-28T03:10:15.339Z,16.20
2018-08-28T03:12:42.334Z,16.20
2018-08-28T03:15:09.351Z,16.20
2018-08-28T03:17:36.310Z,16.20
2018-08-28T03:20:03.287Z,16.00
2018-08-28T03:22:30.259Z,16.10
2018-08-28T03:24:57.253Z,16.20
2018-08-28T03:27:24.243Z,16.20
2018-08-28T03:29:51.247Z,16.30
2018-08-28T03:32:18.216Z,16.70
2018-08-28T03:34:45.198Z,16.50
2018-08-28T03:39:39.450Z,16.50
2018-08-28T03:42:06.477Z,16.50
2018-08-28T03:44:33.510Z,16.30
2018-08-28T03:47:00.528Z,16.30
2018-08-28T03:49:27.502Z,16.30
2018-08-28T03:51:54.482Z,16.40
2018-08-28T03:54:21.461Z,16.20
2018-08-28T03:56:48.447Z,16.00
2018-08-28T03:59:15.439Z,16.00
2018-08-28T04:01:42.418Z,15.90
2018-08-28T04:04:09.405Z,16.10
2018-08-28T04:06:36.390Z,16.40
2018-08-28T04:09:04.480Z,16.40
2018-08-28T04:11:31.451Z,16.30
2018-08-28T04:13:58.462Z,15.90
2018-08-28T04:16:25.437Z,15.80
2018-08-28T04:18:52.474Z,15.90
2018-08-28T04:21:19.518Z,15.70
2018-08-28T04:23:46.501Z,15.70
2018-08-28T04:26:13.463Z,15.70
2018-08-28T04:28:40.483Z,15.70
2018-08-28T04:31:07.514Z,15.50
2018-08-28T04:33:34.495Z,15.50
2018-08-28T04:36:01.519Z,15.50
2018-08-28T04:38:28.790Z,15.40
2018-08-28T04:40:55.740Z,15.50
2018-08-28T04:43:22.772Z,15.50
2018-08-28T04:45:49.770Z,15.60
2018-08-28T04:48:16.744Z,16.50
2018-08-28T04:50:43.728Z,16.30
2018-08-28T04:53:10.719Z,15.80
2018-08-28T04:55:37.707Z,15.70
2018-08-28T04:58:04.707Z,15.70
2018-08-28T05:00:31.702Z,15.60
2018-08-28T05:02:58.672Z,15.60
2018-08-28T05:05:25.683Z,15.70
2018-08-28T05:07:52.658Z,15.70
2018-08-28T05:10:19.657Z,15.70
2018-08-28T05:12:46.671Z,15.60
2018-08-28T05:15:13.655Z,15.60
2018-08-28T05:17:40.626Z,15.70
2018-08-28T05:20:07.610Z,15.90
2018-08-28T05:22:34.595Z,15.90
2018-08-28T05:25:01.568Z,15.90
2018-08-28T05:27:28.552Z,15.90
2018-08-28T05:29:55.534Z,15.90
2018-08-28T05:32:22.498Z,15.80
2018-08-28T05:34:49.503Z,16.00
2018-08-28T05:37:16.465Z,16.00
2018-08-28T05:39:43.839Z,16.10
2018-08-28T05:42:10.838Z,16.00
2018-08-28T05:44:37.818Z,15.90
2018-08-28T05:47:04.803Z,16.10
2018-08-28T05:49:31.792Z,16.10
2018-08-28T05:51:58.751Z,16.00
2018-08-28T05:54:25.799Z,16.10
2018-08-28T05:56:52.794Z,16.20
2018-08-28T05:59:19.769Z,16.40
2018-08-28T06:01:46.739Z,16.60
2018-08-28T06:04:13.727Z,16.70
2018-08-28T06:06:40.692Z,16.90
2018-08-28T06:09:07.803Z,16.90
2018-08-28T06:11:34.801Z,16.90
2018-08-28T06:14:01.782Z,17.00
2018-08-28T06:16:28.755Z,17.10
2018-08-28T06:18:55.746Z,17.00
2018-08-28T06:21:23.347Z,17.10
2018-08-28T06:23:49.811Z,17.40
2018-08-28T06:26:16.825Z,17.60
2018-08-28T06:28:43.762Z,17.80
2018-08-28T06:31:10.732Z,18.20
2018-08-28T06:33:37.739Z,18.20
2018-08-28T06:36:04.763Z,18.10
2018-08-28T06:38:31.749Z,18.30
2018-08-28T06:40:59.015Z,18.20
2018-08-28T06:43:25.991Z,18.10
2018-08-28T06:45:52.982Z,18.20
2018-08-28T06:48:19.978Z,18.10
2018-08-28T06:50:46.951Z,18.20
2018-08-28T06:53:13.924Z,18.50
2018-08-28T06:55:40.931Z,18.60
2018-08-28T06:58:07.906Z,18.80
2018-08-28T07:00:34.890Z,18.90
2018-08-28T07:03:01.904Z,18.90
2018-08-28T07:05:29.245Z,19.10
2018-08-28T07:07:56.239Z,19.30
2018-08-28T07:10:23.231Z,19.40
2018-08-28T07:12:50.161Z,19.60
2018-08-28T07:15:17.173Z,19.50
2018-08-28T07:17:44.170Z,19.70
2018-08-28T07:20:11.174Z,20.00
2018-08-28T07:22:38.164Z,20.00
2018-08-28T07:25:05.263Z,19.90
2018-08-28T07:27:32.234Z,19.90
2018-08-28T07:29:59.203Z,20.00
2018-08-28T07:32:26.205Z,20.40
2018-08-28T07:34:53.183Z,20.50
2018-08-28T07:37:20.201Z,20.60
2018-08-28T07:39:47.175Z,20.80
2018-08-28T07:42:14.802Z,20.80
2018-08-28T07:44:41.792Z,20.90
2018-08-28T07:47:08.791Z,21.10
2018-08-28T07:49:35.760Z,21.20
2018-08-28T07:52:02.732Z,21.40
2018-08-28T07:54:29.746Z,21.60
2018-08-28T07:56:56.737Z,21.90
2018-08-28T07:59:23.751Z,22.10
2018-08-28T08:01:50.751Z,22.20
2018-08-28T08:04:17.723Z,22.30
2018-08-28T08:06:44.701Z,22.30
2018-08-28T08:09:11.734Z,22.40
2018-08-28T08:11:38.792Z,22.50
2018-08-28T08:14:05.788Z,22.70
2018-08-28T08:16:32.868Z,22.80
2018-08-28T08:18:59.840Z,22.90
2018-08-28T08:21:26.823Z,22.90
2018-08-28T08:23:53.836Z,22.90
2018-08-28T08:26:20.816Z,22.80
2018-08-28T08:28:47.786Z,22.60
2018-08-28T08:31:14.776Z,22.80
2018-08-28T08:33:41.753Z,23.00
2018-08-28T08:36:08.722Z,23.00
2018-08-28T08:38:35.746Z,22.90
2018-08-28T08:41:02.722Z,23.30
2018-08-28T08:43:29.851Z,23.10
2018-08-28T08:45:56.839Z,23.30
2018-08-28T08:48:23.801Z,23.20
2018-08-28T08:50:50.778Z,23.50
2018-08-28T08:53:17.772Z,24.10
2018-08-28T08:55:44.747Z,24.10
2018-08-28T08:58:11.729Z,23.90
2018-08-28T09:00:38.706Z,24.30
2018-08-28T09:03:05.687Z,24.40
2018-08-28T09:05:32.642Z,24.30
2018-08-28T09:07:59.634Z,24.60
2018-08-28T09:10:26.612Z,25.00
2018-08-28T09:12:53.579Z,25.20
2018-08-28T09:15:20.575Z,24.50
2018-08-28T09:17:47.519Z,24.70
2018-08-28T09:20:14.498Z,24.50
2018-08-28T09:22:41.498Z,24.80
2018-08-28T09:25:08.487Z,24.90
2018-08-28T09:27:35.470Z,25.00
2018-08-28T09:30:02.584Z,25.00
2018-08-28T09:32:29.584Z,25.20
2018-08-28T09:34:56.562Z,26.30
2018-08-28T09:37:23.586Z,26.60
2018-08-28T09:39:50.561Z,26.60
2018-08-28T09:42:17.566Z,26.50
2018-08-28T09:44:44.787Z,26.80
2018-08-28T09:47:11.753Z,26.80
2018-08-28T09:49:38.734Z,26.80
2018-08-28T09:52:05.721Z,26.40
2018-08-28T09:54:32.714Z,26.60
2018-08-28T09:56:59.727Z,26.90
2018-08-28T09:59:26.735Z,25.50
2018-08-28T10:01:53.762Z,27.10
2018-08-28T10:04:20.707Z,27.20
2018-08-28T10:06:47.688Z,27.30
2018-08-28T10:09:15.849Z,27.50
2018-08-28T10:11:43.011Z,27.40
2018-08-28T10:14:10.818Z,27.70
2018-08-28T10:16:37.836Z,27.40
2018-08-28T10:19:05.260Z,27.40
2018-08-28T10:21:32.241Z,26.90
2018-08-28T10:23:59.269Z,27.10
2018-08-28T10:26:26.318Z,27.30
2018-08-28T10:28:53.326Z,26.80
2018-08-28T10:31:20.310Z,27.40
2018-08-28T10:33:48.071Z,27.40
2018-08-28T10:36:15.356Z,27.90
2018-08-28T10:38:42.434Z,28.60
2018-08-28T10:41:09.437Z,28.60
2018-08-28T10:43:37.498Z,29.10
2018-08-28T10:46:05.185Z,28.90
2018-08-28T10:48:32.192Z,29.30
2018-08-28T10:50:59.298Z,29.50
2018-08-28T10:53:26.404Z,29.80
2018-08-28T10:55:53.511Z,29.90
2018-08-28T10:58:20.514Z,29.70
2018-08-28T11:00:47.697Z,29.10
2018-08-28T11:03:15.306Z,29.40
2018-08-28T11:05:42.371Z,28.80
2018-08-28T11:08:09.549Z,28.60
2018-08-28T11:10:36.569Z,29.60
2018-08-28T11:13:03.583Z,29.90
2018-08-28T11:15:30.631Z,29.50
2018-08-28T11:17:57.603Z,29.90
2018-08-28T11:20:24.599Z,29.60
2018-08-28T11:22:51.615Z,29.80
2018-08-28T11:25:18.538Z,30.20
2018-08-28T11:27:45.667Z,30.40
2018-08-28T11:30:13.162Z,30.20
2018-08-28T11:32:39.736Z,30.50
2018-08-28T11:35:06.723Z,30.50
2018-08-28T11:37:34.204Z,30.40
2018-08-28T11:40:00.686Z,30.10
2018-08-28T11:42:27.678Z,30.30
2018-08-28T11:44:54.700Z,30.30
2018-08-28T11:47:22.146Z,30.20
2018-08-28T11:49:49.147Z,30.20
2018-08-28T11:52:16.111Z,30.50
2018-08-28T11:54:43.083Z,30.40
2018-08-28T11:57:10.145Z,29.30
2018-08-28T11:59:37.111Z,29.60
2018-08-28T12:02:04.194Z,30.40
2018-08-28T12:04:31.115Z,30.10
2018-08-28T12:06:58.196Z,30.50
2018-08-28T12:09:25.123Z,30.60
2018-08-28T12:11:52.102Z,30.40
2018-08-28T12:14:19.074Z,30.10
2018-08-28T12:16:46.073Z,29.60
2018-08-28T12:19:13.090Z,29.10
2018-08-28T12:21:40.071Z,29.00
2018-08-28T12:24:07.038Z,29.00
2018-08-28T12:26:34.370Z,29.10
2018-08-28T12:29:01.311Z,29.10
2018-08-28T12:31:28.270Z,29.10
2018-08-28T12:33:55.290Z,29.00
2018-08-28T12:36:22.247Z,28.90
2018-08-28T12:38:49.399Z,28.90
2018-08-28T12:41:16.398Z,29.00
2018-08-28T12:43:43.362Z,29.30
2018-08-28T12:46:10.378Z,29.30
2018-08-28T12:48:37.703Z,29.20
2018-08-28T12:51:04.952Z,28.80
2018-08-28T12:53:31.889Z,29.00
2018-08-28T12:55:58.900Z,29.30
2018-08-28T12:58:25.867Z,29.20
2018-08-28T13:00:52.874Z,29.10
2018-08-28T13:03:19.850Z,29.10
2018-08-28T13:05:46.827Z,29.10
2018-08-28T13:08:13.806Z,28.60
2018-08-28T13:10:40.822Z,28.50
2018-08-28T13:13:07.789Z,28.20
2018-08-28T13:15:34.770Z,28.10
2018-08-28T13:18:01.766Z,28.30
2018-08-28T13:20:28.757Z,28.60
2018-08-28T13:22:55.720Z,28.60
2018-08-28T13:25:22.817Z,28.30
2018-08-28T13:27:49.703Z,27.90
2018-08-28T13:30:16.683Z,27.80
2018-08-28T13:32:43.692Z,27.70
2018-08-28T13:35:10.639Z,27.70
2018-08-28T13:37:37.701Z,27.70
2018-08-28T13:40:06.727Z,27.80
2018-08-28T13:42:33.707Z,27.80
2018-08-28T13:45:00.695Z,27.80
2018-08-28T13:47:27.689Z,27.80
2018-08-28T13:49:55.295Z,27.80
2018-08-28T13:52:22.255Z,27.90
2018-08-28T13:54:49.247Z,28.00
2018-08-28T13:57:16.226Z,28.20
2018-08-28T13:59:43.173Z,28.20
2018-08-28T14:02:10.156Z,28.30
2018-08-28T14:04:37.134Z,28.30
2018-08-28T14:07:04.098Z,28.40
2018-08-28T14:09:31.084Z,28.40
2018-08-28T14:11:58.047Z,28.30
2018-08-28T14:14:25.036Z,28.30
2018-08-28T14:16:52.043Z,28.30
2018-08-28T14:19:19.024Z,28.20
2018-08-28T14:21:46.002Z,28.20
2018-08-28T14:24:12.991Z,28.00
2018-08-28T14:26:39.951Z,27.80
2018-08-28T14:29:06.979Z,28.00
2018-08-28T14:31:33.898Z,28.10
2018-08-28T14:34:01.116Z,27.80
2018-08-28T14:36:28.095Z,27.30
2018-08-28T14:38:55.460Z,27.10
2018-08-28T14:41:22.423Z,27.00
2018-08-28T14:43:49.386Z,27.50
2018-08-28T14:46:16.398Z,27.60
2018-08-28T14:48:43.375Z,27.70
2018-08-28T14:51:10.875Z,27.70
2018-08-28T14:53:37.866Z,27.80
2018-08-28T14:56:04.923Z,27.60
2018-08-28T14:58:32.894Z,27.50
2018-08-28T15:00:59.879Z,27.50
2018-08-28T15:03:26.862Z,27.40
2018-08-28T15:05:53.859Z,27.50
2018-08-28T15:08:20.874Z,27.60
2018-08-28T15:10:47.844Z,27.50
2018-08-28T15:13:14.820Z,27.40
2018-08-28T15:15:41.807Z,27.40
2018-08-28T15:18:08.791Z,27.30
2018-08-28T15:20:35.758Z,27.20
2018-08-28T15:23:02.759Z,28.40
2018-08-28T15:25:29.743Z,27.00
2018-08-28T15:27:56.711Z,26.70
2018-08-28T15:30:23.742Z,26.80
2018-08-28T15:32:50.810Z,26.70
2018-08-28T15:35:17.703Z,26.70
2018-08-28T15:37:44.710Z,26.70
2018-08-28T15:40:12.079Z,26.70
2018-08-28T15:42:39.075Z,26.90
2018-08-28T15:45:06.154Z,27.00
2018-08-28T15:47:33.134Z,27.00
2018-08-28T15:50:00.083Z,27.00
2018-08-28T15:52:27.576Z,26.90
2018-08-28T15:54:54.538Z,27.00
2018-08-28T15:57:21.570Z,26.70
2018-08-28T15:59:48.554Z,26.70
2018-08-28T16:02:15.509Z,26.60
2018-08-28T16:04:42.556Z,26.10
2018-08-28T16:07:09.528Z,26.70
2018-08-28T16:09:36.506Z,26.70
2018-08-28T16:12:03.466Z,26.60
2018-08-28T16:14:30.476Z,26.60
2018-08-28T16:16:57.454Z,26.60
2018-08-28T16:19:24.440Z,26.50
2018-08-28T16:21:54.030Z,26.40
2018-08-28T16:24:21.638Z,26.40
2018-08-28T16:26:48.615Z,26.30
2018-08-28T16:29:15.594Z,26.30
2018-08-28T16:31:42.613Z,26.10
2018-08-28T16:34:10.047Z,26.10
2018-08-28T16:36:37.419Z,26.10
2018-08-28T16:39:05.790Z,26.10
2018-08-28T16:41:32.760Z,26.10
2018-08-28T16:43:59.758Z,26.00
2018-08-28T16:46:26.749Z,26.00
2018-08-28T16:48:53.710Z,26.00
2018-08-28T16:51:20.703Z,25.90
2018-08-28T16:53:48.278Z,25.80
2018-08-28T16:56:15.243Z,25.80
2018-08-28T16:58:42.234Z,25.60
2018-08-28T17:01:09.238Z,25.50
2018-08-28T17:03:36.176Z,25.40
2018-08-28T17:06:03.179Z,25.50
2018-08-28T17:08:30.168Z,25.50
2018-08-28T17:10:57.154Z,25.50
2018-08-28T17:13:24.145Z,25.40
2018-08-28T17:15:51.129Z,25.40
2018-08-28T17:18:18.096Z,25.40
2018-08-28T17:20:45.078Z,25.30
2018-08-28T17:23:12.063Z,25.20
2018-08-28T17:25:39.035Z,25.20
2018-08-28T17:28:06.014Z,25.20
2018-08-28T17:30:32.975Z,25.00
2018-08-28T17:32:59.943Z,25.00
2018-08-28T17:35:26.934Z,24.90
2018-08-28T17:37:53.901Z,24.90
2018-08-28T17:40:20.878Z,24.80
2018-08-28T17:42:47.872Z,24.70
2018-08-28T17:45:14.846Z,24.70
2018-08-28T17:47:41.825Z,24.60
2018-08-28T17:50:09.015Z,24.60
2018-08-28T17:52:36.007Z,24.40
2018-08-28T17:55:03.703Z,23.60
2018-08-28T17:57:30.690Z,24.30
2018-08-28T17:59:57.654Z,24.20
2018-08-28T18:02:24.635Z,24.20
2018-08-28T18:04:51.815Z,24.00
2018-08-28T18:07:18.798Z,23.90
2018-08-28T18:09:45.767Z,23.80
2018-08-28T18:12:12.791Z,22.50
2018-08-28T18:14:39.833Z,23.70
2018-08-28T18:17:06.832Z,23.60
2018-08-28T18:19:33.850Z,23.50
2018-08-28T18:22:00.822Z,23.50
2018-08-28T18:24:27.796Z,24.00
2018-08-28T18:26:54.794Z,24.30
2018-08-28T18:29:21.799Z,24.10
2018-08-28T18:31:48.772Z,23.90
2018-08-28T18:34:15.738Z,23.50
2018-08-28T18:36:42.727Z,23.30
2018-08-28T18:39:09.812Z,23.20
2018-08-28T18:41:36.917Z,23.20
2018-08-28T18:44:04.210Z,23.30
2018-08-28T18:46:31.198Z,23.20
2018-08-28T18:48:58.242Z,23.20
2018-08-28T18:51:25.244Z,23.10
2018-08-28T18:53:52.207Z,23.20
2018-08-28T18:56:19.733Z,23.00
2018-08-28T18:58:46.755Z,23.00
2018-08-28T19:01:13.762Z,23.00
2018-08-28T19:03:40.764Z,22.90
2018-08-28T19:06:07.755Z,22.90
2018-08-28T19:08:34.739Z,23.00
2018-08-28T19:11:01.733Z,22.80
2018-08-28T19:13:28.687Z,22.50
2018-08-28T19:15:55.664Z,22.50
2018-08-28T19:18:23.001Z,22.80
2018-08-28T19:20:50.021Z,22.70
2018-08-28T19:23:16.989Z,22.70
2018-08-28T19:25:43.976Z,22.60
2018-08-28T19:28:10.925Z,22.60
2018-08-28T19:30:37.874Z,22.60
2018-08-28T19:33:04.956Z,22.60
2018-08-28T19:35:31.922Z,22.40
2018-08-28T19:37:58.870Z,22.30
2018-08-28T19:40:25.889Z,22.20
2018-08-28T19:42:52.954Z,21.30
2018-08-28T19:45:19.999Z,22.20
2018-08-28T19:47:46.957Z,22.30
2018-08-28T19:50:13.894Z,22.20
2018-08-28T19:52:40.843Z,22.30
2018-08-28T19:55:07.852Z,22.00
2018-08-28T19:57:35.167Z,20.80
2018-08-28T20:00:02.119Z,22.10
2018-08-28T20:02:29.090Z,22.00
2018-08-28T20:04:56.058Z,21.90
2018-08-28T20:07:23.034Z,21.80
2018-08-28T20:09:50.031Z,21.80
2018-08-28T20:12:16.978Z,21.80
2018-08-28T20:14:44.019Z,21.80
2018-08-28T20:17:10.966Z,21.70
2018-08-28T20:19:37.907Z,21.50
2018-08-28T20:22:07.599Z,21.50
2018-08-28T20:24:34.618Z,21.50
2018-08-28T20:27:01.654Z,21.40
2018-08-28T20:29:28.559Z,21.60
2018-08-28T20:31:55.619Z,21.80
2018-08-28T20:34:22.517Z,21.60
2018-08-28T20:36:49.546Z,21.60
2018-08-28T20:39:16.535Z,21.80
2018-08-28T20:41:43.577Z,21.60
2018-08-28T20:44:10.460Z,21.50
2018-08-28T20:46:37.469Z,21.40
2018-08-28T20:49:04.550Z,21.20
2018-08-28T20:51:31.854Z,21.20
2018-08-28T20:53:58.812Z,21.60
2018-08-28T20:56:25.796Z,21.40
2018-08-28T20:58:53.542Z,21.40
2018-08-28T21:01:20.532Z,21.20
2018-08-28T21:03:47.531Z,21.30
2018-08-28T21:06:14.578Z,21.40
2018-08-28T21:08:41.539Z,21.20
2018-08-28T21:11:08.551Z,21.00
2018-08-28T21:13:35.531Z,20.80
2018-08-28T21:16:02.537Z,20.70
2018-08-28T21:18:29.533Z,20.70
2018-08-28T21:20:56.542Z,20.60
2018-08-28T21:23:23.589Z,20.50
2018-08-28T21:25:50.616Z,20.50
2018-08-28T21:28:17.568Z,20.50
2018-08-28T21:30:44.553Z,20.50
2018-08-28T21:33:11.524Z,20.50
2018-08-28T21:35:38.563Z,20.40
2018-08-28T21:38:05.587Z,20.30
2018-08-28T21:40:32.543Z,20.20
2018-08-28T21:42:59.515Z,20.30
2018-08-28T21:45:26.523Z,20.40
2018-08-28T21:47:53.484Z,20.20
2018-08-28T21:50:20.471Z,20.30
2018-08-28T21:52:47.456Z,20.20
2018-08-28T21:55:14.494Z,20.10
2018-08-28T21:57:41.452Z,20.00
2018-08-28T22:00:09.080Z,20.00
2018-08-28T22:02:36.063Z,20.00
2018-08-28T22:05:03.031Z,20.10
2018-08-28T22:07:35.955Z,19.90
2018-08-28T22:10:03.003Z,19.70
2018-08-28T22:12:29.989Z,19.70
2018-08-28T22:14:56.964Z,19.80
2018-08-28T22:17:23.956Z,19.70
2018-08-28T22:19:51.067Z,19.60
2018-08-28T22:22:18.180Z,19.50
2018-08-28T22:24:45.155Z,19.50
2018-08-28T22:27:12.136Z,19.60
2018-08-28T22:29:39.125Z,19.50
2018-08-28T22:32:06.103Z,19.50
2018-08-28T22:34:33.059Z,19.40
2018-08-28T22:37:00.039Z,19.40
2018-08-28T22:39:26.987Z,19.20
2018-08-28T22:41:53.928Z,19.20
2018-08-28T22:44:20.954Z,19.10
2018-08-28T22:46:47.907Z,19.30
2018-08-28T22:49:14.867Z,19.40
2018-08-28T22:51:41.840Z,19.40
2018-08-28T22:54:08.807Z,19.30
2018-08-28T22:56:35.738Z,19.20
2018-08-28T22:59:02.723Z,19.20
2018-08-28T23:01:30.086Z,19.10
2018-08-28T23:03:57.047Z,19.10
2018-08-28T23:06:24.011Z,19.10
2018-08-28T23:08:50.957Z,19.10
2018-08-28T23:11:17.931Z,19.00
2018-08-28T23:13:44.883Z,19.10
2018-08-28T23:16:11.860Z,19.00
2018-08-28T23:18:38.798Z,19.00
2018-08-28T23:21:05.774Z,18.90
2018-08-28T23:23:32.742Z,18.90
2018-08-28T23:25:59.709Z,18.70
2018-08-28T23:28:26.716Z,18.60
2018-08-28T23:30:53.748Z,18.50
2018-08-28T23:33:20.699Z,18.40
2018-08-28T23:35:47.650Z,18.40
2018-08-28T23:38:14.615Z,18.40
2018-08-28T23:40:41.611Z,18.40
2018-08-28T23:43:08.575Z,18.40
2018-08-28T23:45:35.542Z,18.50
2018-08-28T23:48:02.528Z,18.40
2018-08-28T23:50:29.499Z,18.30
2018-08-28T23:52:56.432Z,18.20
2018-08-28T23:55:23.414Z,18.20
2018-08-28T23:57:50.386Z,18.10
